Time;durP1;ratioP1;P1;durP2;ratioP2;P2;SDS_P1;SDS_P2;PMS_P1;PMS_P2;Temp;Humidity;BMP_temperature;BMP_pressure;BME280_temperature;BME280_humidity;BME280_pressure;Samples;Min_cycle;Max_cycle;Signal;HPM_P1;HPM_P2
2021/06/16 00:00:41;;;;;;;3.25;1.50;;;;;;;14.69;99.89;92997.63;5131742;27;20054;-83
2021/06/16 00:03:08;;;;;;;3.55;1.52;;;;;;;14.77;99.52;93021.56;5131860;27;20409;-83
2021/06/16 00:05:35;;;;;;;3.88;1.42;;;;;;;14.76;99.65;93007.84;5131675;27;20051;-84
2021/06/16 00:08:01;;;;;;;2.35;1.48;;;;;;;14.77;100.00;93014.56;5131768;27;20440;-84
2021/06/16 00:10:30;;;;;;;2.35;1.77;;;;;;;14.74;100.00;93007.28;5132569;27;20051;-84
2021/06/16 00:12:58;;;;;;;2.78;1.67;;;;;;;14.70;100.00;92994.03;5132427;27;20047;-84
2021/06/16 00:15:28;;;;;;;3.17;1.58;;;;;;;14.75;100.00;93006.28;5132199;27;20055;-84
2021/06/16 00:17:55;;;;;;;3.10;1.67;;;;;;;14.64;100.00;92982.09;5131870;27;20052;-85
2021/06/16 00:20:23;;;;;;;2.30;1.27;;;;;;;14.75;99.92;92993.34;5131357;27;20039;-85
2021/06/16 00:22:50;;;;;;;3.90;1.60;;;;;;;14.69;100.00;92979.53;5132187;27;20069;-86
2021/06/16 00:25:16;;;;;;;3.20;1.80;;;;;;;14.47;100.00;92945.94;5132131;27;20046;-86
2021/06/16 00:27:43;;;;;;;2.42;1.83;;;;;;;14.75;100.00;92987.38;5132020;27;20047;-86
2021/06/16 00:30:13;;;;;;;1.77;1.15;;;;;;;14.74;100.00;92984.00;5131565;27;20577;-87
2021/06/16 00:32:41;;;;;;;2.67;1.25;;;;;;;14.61;100.00;92964.47;5131838;27;20065;-86
2021/06/16 00:35:08;;;;;;;2.47;1.60;;;;;;;14.63;100.00;92969.38;5131349;27;20043;-86
2021/06/16 00:37:35;;;;;;;3.15;1.80;;;;;;;14.73;100.00;92974.69;5131262;27;20062;-87
2021/06/16 00:40:05;;;;;;;2.75;1.67;;;;;;;14.57;100.00;92951.22;5131184;27;20048;-86
2021/06/16 00:42:32;;;;;;;2.80;1.90;;;;;;;14.69;100.00;92971.00;5131020;27;20058;-87
2021/06/16 00:44:59;;;;;;;2.47;1.55;;;;;;;14.77;100.00;92988.69;5130971;27;20066;-87
2021/06/16 00:47:27;;;;;;;2.95;1.80;;;;;;;14.66;100.00;92959.34;5131371;27;20397;-86
2021/06/16 00:49:54;;;;;;;2.95;1.75;;;;;;;14.74;100.00;92968.50;5131064;27;20043;-86
2021/06/16 00:52:21;;;;;;;2.83;1.50;;;;;;;14.71;100.00;92958.63;5131124;27;20054;-86
2021/06/16 00:54:47;;;;;;;3.03;1.60;;;;;;;14.74;100.00;92957.34;5130927;27;20058;-86
2021/06/16 00:57:14;;;;;;;5.25;2.65;;;;;;;14.74;100.00;92940.03;5130520;27;20051;-86
2021/06/16 00:59:51;;;;;;;3.05;1.63;;;;;;;14.83;100.00;92951.53;5130810;27;20122;-86
2021/06/16 01:02:20;;;;;;;2.30;1.48;;;;;;;14.83;100.00;92950.78;5130772;27;20070;-86
2021/06/16 01:04:52;;;;;;;2.47;1.50;;;;;;;14.79;100.00;92940.13;5130910;27;20086;-86
2021/06/16 01:07:24;;;;;;;3.22;1.83;;;;;;;14.81;100.00;92942.47;5130873;27;20051;-85
2021/06/16 01:09:58;;;;;;;2.55;1.83;;;;;;;14.81;100.00;92951.00;5130589;27;20058;-85
2021/06/16 01:12:34;;;;;;;2.38;1.50;;;;;;;14.66;100.00;92930.13;5130466;27;20596;-85
2021/06/16 01:15:04;;;;;;;2.53;1.70;;;;;;;14.83;100.00;92937.84;5130622;27;20058;-85
2021/06/16 01:17:35;;;;;;;3.05;1.88;;;;;;;14.63;100.00;92915.09;5130220;27;20047;-85
2021/06/16 01:20:23;;;;;;;3.05;1.60;;;;;;;14.71;100.00;92940.53;5130547;27;20062;-85
2021/06/16 01:23:02;;;;;;;2.03;1.55;;;;;;;14.73;100.00;92935.91;5130255;27;20058;-85
2021/06/16 01:25:34;;;;;;;4.40;1.80;;;;;;;14.67;100.00;92923.91;5130610;27;20096;-84
2021/06/16 01:28:02;;;;;;;1.88;1.50;;;;;;;14.62;100.00;92916.13;5130251;27;20047;-84
2021/06/16 01:30:32;;;;;;;2.35;1.67;;;;;;;14.50;100.00;92905.91;5130284;27;20054;-84
2021/06/16 01:33:00;;;;;;;3.78;1.73;;;;;;;14.66;100.00;92940.47;5129972;27;20122;-83
2021/06/16 01:35:30;;;;;;;2.28;1.55;;;;;;;14.64;100.00;92939.94;5130152;27;20090;-85
2021/06/16 01:37:58;;;;;;;4.38;1.63;;;;;;;14.62;100.00;92945.34;5130082;28;20063;-84
2021/06/16 01:40:26;;;;;;;7.20;1.65;;;;;;;14.62;100.00;92945.34;5130285;28;20051;-84
2021/06/16 01:42:56;;;;;;;2.80;1.80;;;;;;;14.63;100.00;92938.38;5129903;28;20490;-82
2021/06/16 01:45:26;;;;;;;2.10;1.52;;;;;;;14.60;100.00;92938.84;5130293;28;20071;-84
2021/06/16 01:47:55;;;;;;;2.92;1.98;;;;;;;14.52;100.00;92940.84;5129870;28;20054;-84
2021/06/16 01:50:22;;;;;;;5.65;2.42;;;;;;;14.53;100.00;92941.59;5129984;28;20043;-85
2021/06/16 01:52:53;;;;;;;2.50;1.55;;;;;;;14.53;100.00;92949.34;5130295;28;20050;-85
2021/06/16 01:55:20;;;;;;;2.20;1.67;;;;;;;14.51;100.00;92946.25;5130471;28;20432;-84
2021/06/16 01:57:49;;;;;;;1.90;1.40;;;;;;;14.38;100.00;92916.34;5130103;28;20074;-84
2021/06/16 02:00:18;;;;;;;3.10;1.75;;;;;;;14.52;100.00;92945.22;5130271;27;20047;-84
2021/06/16 02:02:46;;;;;;;2.67;1.83;;;;;;;14.52;100.00;92934.88;5130109;28;20398;-85
2021/06/16 02:05:18;;;;;;;5.90;1.60;;;;;;;14.33;100.00;92919.66;5129677;28;20100;-85
2021/06/16 02:07:51;;;;;;;2.50;1.77;;;;;;;14.52;100.00;92937.47;5130104;27;20332;-85
2021/06/16 02:10:20;;;;;;;2.15;1.48;;;;;;;14.57;100.00;92946.06;5130137;28;20047;-83
2021/06/16 02:12:48;;;;;;;5.85;1.52;;;;;;;14.56;100.00;92941.91;5130084;28;20039;-84
2021/06/16 02:15:17;;;;;;;2.88;1.75;;;;;;;14.55;100.00;92942.16;5130381;28;20092;-84
2021/06/16 02:17:55;;;;;;;2.38;1.35;;;;;;;14.52;100.00;92935.66;5130182;28;20050;-85
2021/06/16 02:20:23;;;;;;;3.13;1.98;;;;;;;14.56;100.00;92948.88;5129895;28;20055;-85
2021/06/16 02:22:51;;;;;;;1.90;1.50;;;;;;;14.53;100.00;92942.38;5130042;28;20104;-85
2021/06/16 02:25:19;;;;;;;3.58;2.00;;;;;;;14.51;100.00;92952.19;5129749;28;20047;-85
2021/06/16 02:27:46;;;;;;;2.47;1.25;;;;;;;14.53;100.00;92946.75;5129723;28;20047;-83
2021/06/16 02:30:14;;;;;;;3.55;2.30;;;;;;;14.52;100.00;92950.38;5129773;28;20201;-84
2021/06/16 02:32:41;;;;;;;3.28;1.73;;;;;;;14.48;100.00;92937.16;5129543;28;20509;-84
2021/06/16 02:35:11;;;;;;;3.10;2.13;;;;;;;14.41;100.00;92933.97;5129934;27;20047;-84
2021/06/16 02:37:43;;;;;;;2.33;1.38;;;;;;;14.52;100.00;92951.16;5129892;28;20509;-86
2021/06/16 02:40:14;;;;;;;2.05;1.50;;;;;;;14.54;100.00;92950.94;5129902;28;20043;-85
2021/06/16 02:42:42;;;;;;;2.70;1.80;;;;;;;14.52;100.00;92951.16;5130065;27;20043;-85
2021/06/16 02:45:10;;;;;;;3.45;2.55;;;;;;;14.44;100.00;92949.00;5134432;27;20043;-84
2021/06/16 02:47:41;;;;;;;3.17;1.58;;;;;;;14.43;100.00;92940.47;5135107;27;20039;-85
2021/06/16 02:50:12;;;;;;;2.33;1.70;;;;;;;14.45;100.00;92950.56;5133282;27;20043;-84
2021/06/16 02:52:43;;;;;;;3.63;2.00;;;;;;;14.44;100.00;92943.81;5133183;27;20050;-85
2021/06/16 02:55:12;;;;;;;3.47;2.17;;;;;;;14.50;100.00;92942.09;5133197;27;20092;-84
2021/06/16 02:57:42;;;;;;;2.38;1.70;;;;;;;14.56;100.00;92947.09;5133292;27;20480;-84
2021/06/16 03:00:12;;;;;;;2.72;1.73;;;;;;;14.39;100.00;92917.91;5133104;27;20100;-83
2021/06/16 03:02:43;;;;;;;2.10;1.60;;;;;;;14.46;100.00;92934.03;5133154;27;20417;-86
2021/06/16 03:05:14;;;;;;;2.40;1.88;;;;;;;14.52;100.00;92935.66;5133040;27;20127;-87
2021/06/16 03:07:43;;;;;;;2.45;1.80;;;;;;;14.61;100.00;92941.19;5133178;27;20047;-86
2021/06/16 03:10:11;;;;;;;4.28;2.25;;;;;;;14.62;100.00;92940.16;5132978;27;20051;-86
2021/06/16 03:12:38;;;;;;;2.47;1.80;;;;;;;14.67;100.00;92942.00;5132974;27;20055;-84
2021/06/16 03:15:07;;;;;;;2.72;2.00;;;;;;;14.69;100.00;92945.16;5132668;27;20433;-84
2021/06/16 03:17:35;;;;;;;3.83;1.55;;;;;;;14.57;100.00;92925.38;5132408;27;20047;-83
2021/06/16 03:20:03;;;;;;;3.58;2.05;;;;;;;14.67;100.00;92942.00;5132479;27;20096;-84
2021/06/16 03:22:32;;;;;;;3.22;2.25;;;;;;;14.67;100.00;92944.59;5132867;27;20396;-84
2021/06/16 03:25:01;;;;;;;2.92;1.85;;;;;;;14.57;100.00;92933.13;5132914;27;20391;-85
2021/06/16 03:27:28;;;;;;;4.10;2.50;;;;;;;14.69;100.00;92952.91;5132408;27;20047;-85
2021/06/16 03:29:55;;;;;;;3.35;2.10;;;;;;;14.67;100.00;92954.94;5132498;27;20107;-84
2021/06/16 03:32:24;;;;;;;2.85;2.13;;;;;;;14.72;100.00;92955.00;5132624;27;20050;-84
2021/06/16 03:34:51;;;;;;;3.53;2.33;;;;;;;14.77;100.00;92965.44;5132466;27;20051;-85
2021/06/16 03:37:18;;;;;;;8.45;3.42;;;;;;;14.79;100.00;92957.44;5132529;27;20505;-85
2021/06/16 03:39:51;;;;;;;3.47;2.25;;;;;;;14.75;100.00;92958.94;5132173;27;20043;-84
2021/06/16 03:42:19;;;;;;;4.20;2.30;;;;;;;14.75;100.00;92964.91;5132432;27;20130;-84
2021/06/16 03:44:48;;;;;;;2.53;1.80;;;;;;;14.79;100.00;92965.19;5132422;27;20047;-84
2021/06/16 03:47:17;;;;;;;6.78;2.67;;;;;;;14.68;100.00;92943.59;5132135;27;20043;-86
2021/06/16 03:49:45;;;;;;;2.95;1.80;;;;;;;14.89;100.00;92962.72;5132332;27;20449;-86
2021/06/16 03:52:13;;;;;;;4.63;2.83;;;;;;;14.91;100.00;92963.25;5131743;27;20517;-86
2021/06/16 03:54:42;;;;;;;2.22;1.52;;;;;;;14.92;100.00;92964.06;5131861;27;20053;-85
2021/06/16 03:57:10;;;;;;;3.42;1.98;;;;;;;14.71;100.00;92932.75;5131909;27;20044;-84
2021/06/16 03:59:38;;;;;;;3.58;2.25;;;;;;;14.70;100.00;92926.81;5131747;27;20054;-83
2021/06/16 04:02:05;;;;;;;3.65;1.88;;;;;;;14.90;100.00;92951.34;5131975;27;20104;-82
2021/06/16 04:04:34;;;;;;;3.22;1.77;;;;;;;14.98;100.00;92957.09;5132078;27;20050;-82
2021/06/16 04:07:03;;;;;;;2.88;1.83;;;;;;;14.98;100.00;92963.06;5131830;27;20043;-84
2021/06/16 04:09:30;;;;;;;3.05;2.00;;;;;;;14.99;100.00;92956.88;5131570;27;20043;-85
2021/06/16 04:11:58;;;;;;;3.30;1.80;;;;;;;15.06;100.00;92967.84;5131760;27;20047;-84
2021/06/16 04:14:26;;;;;;;3.50;1.70;;;;;;;15.12;100.00;92968.66;5131787;27;20051;-84
2021/06/16 04:16:55;;;;;;;3.22;1.85;;;;;;;15.07;100.00;92953.06;5131407;27;20490;-84
2021/06/16 04:19:22;;;;;;;3.17;1.95;;;;;;;15.23;100.00;92969.56;5131524;27;20051;-84
2021/06/16 04:21:49;;;;;;;3.13;1.80;;;;;;;15.24;100.00;92950.41;5131328;27;20582;-84
2021/06/16 04:24:16;;;;;;;2.95;2.08;;;;;;;15.39;100.00;92954.94;5131323;27;20387;-84
2021/06/16 04:26:43;;;;;;;3.03;1.90;;;;;;;15.50;100.00;92959.16;5131498;27;20060;-84
2021/06/16 04:29:10;;;;;;;3.08;2.13;;;;;;;15.45;100.00;92947.97;5131515;27;20047;-84
2021/06/16 04:31:38;;;;;;;4.80;2.03;;;;;;;15.55;100.00;92963.59;5131780;27;20077;-84
2021/06/16 04:34:05;;;;;;;4.20;2.08;;;;;;;15.57;100.00;92968.53;5131261;27;20413;-84
2021/06/16 04:36:31;;;;;;;2.97;1.85;;;;;;;15.53;100.00;92970.84;5131271;27;20105;-84
2021/06/16 04:38:58;;;;;;;6.60;2.55;;;;;;;15.55;100.00;92966.19;5131378;27;20422;-84
2021/06/16 04:41:25;;;;;;;5.15;2.05;;;;;;;15.59;100.00;92967.25;5130932;27;20058;-85
2021/06/16 04:43:52;;;;;;;2.80;1.60;;;;;;;15.44;100.00;92926.50;5130865;27;20511;-84
2021/06/16 04:46:19;;;;;;;3.85;1.92;;;;;;;15.71;100.00;92972.28;5131188;27;20043;-85
2021/06/16 04:48:47;;;;;;;3.92;2.17;;;;;;;15.75;100.00;92968.16;5130800;27;20051;-84
2021/06/16 04:51:14;;;;;;;3.17;1.85;;;;;;;15.88;99.95;92976.56;5130677;27;20376;-84
2021/06/16 04:53:41;;;;;;;3.17;2.13;;;;;;;15.97;99.63;92979.50;5131061;27;20047;-85
2021/06/16 04:56:08;;;;;;;7.75;2.88;;;;;;;16.02;99.29;92987.31;5130726;27;20095;-83
2021/06/16 04:58:34;;;;;;;3.20;1.92;;;;;;;16.02;98.04;92984.72;5130461;27;20498;-84
2021/06/16 05:01:01;;;;;;;4.05;2.05;;;;;;;16.02;99.45;92987.31;5130558;27;20051;-83
2021/06/16 05:03:28;;;;;;;4.35;2.17;;;;;;;15.95;98.89;92971.97;5130893;27;20070;-84
2021/06/16 05:05:56;;;;;;;2.97;1.90;;;;;;;15.97;99.91;92979.50;5130096;27;20043;-83
2021/06/16 05:08:23;;;;;;;3.85;2.63;;;;;;;16.10;100.00;92996.44;5130754;27;20471;-83
2021/06/16 05:10:50;;;;;;;3.28;2.03;;;;;;;16.10;99.14;92996.44;5130412;27;20581;-83
2021/06/16 05:13:21;;;;;;;4.53;1.85;;;;;;;16.05;99.18;92984.19;5130462;27;20046;-84
2021/06/16 05:15:49;;;;;;;2.40;1.75;;;;;;;15.98;100.00;92981.06;5130676;27;20054;-85
2021/06/16 05:18:15;;;;;;;2.28;1.65;;;;;;;15.98;100.00;92994.00;5130337;27;20043;-84
2021/06/16 05:20:42;;;;;;;5.97;2.67;;;;;;;15.92;100.00;92987.97;5130248;27;20495;-84
2021/06/16 05:23:11;;;;;;;4.15;2.22;;;;;;;15.92;100.00;92975.00;5130275;27;20054;-84
2021/06/16 05:25:38;;;;;;;3.20;2.28;;;;;;;16.05;100.00;92997.16;5130546;27;20039;-83
2021/06/16 05:28:05;;;;;;;2.65;1.90;;;;;;;15.94;100.00;92972.22;5130478;27;20074;-84
2021/06/16 05:30:32;;;;;;;2.55;1.73;;;;;;;16.08;99.50;92988.91;5130138;27;20051;-84
2021/06/16 05:32:59;;;;;;;2.65;1.77;;;;;;;16.13;100.00;92986.34;5130354;27;20043;-84
2021/06/16 05:35:26;;;;;;;3.08;1.92;;;;;;;16.12;100.00;92982.16;5130215;27;20099;-84
2021/06/16 05:37:53;;;;;;;4.20;2.15;;;;;;;16.28;99.58;92998.59;5130061;27;20410;-84
2021/06/16 05:40:21;;;;;;;3.00;1.50;;;;;;;16.24;98.45;92989.00;5130063;28;20049;-84
2021/06/16 05:42:48;;;;;;;2.40;1.77;;;;;;;16.37;98.06;92998.13;5127137;28;20047;-84
2021/06/16 05:45:15;;;;;;;3.63;1.75;;;;;;;16.47;99.32;92993.00;5127995;28;20069;-84
2021/06/16 05:47:42;;;;;;;2.58;1.60;;;;;;;16.53;99.40;92989.41;5128989;28;20047;-84
2021/06/16 05:50:10;;;;;;;3.47;2.15;;;;;;;16.59;98.87;92992.81;5130247;28;20055;-84
2021/06/16 05:52:37;;;;;;;2.72;1.58;;;;;;;16.75;98.29;93008.44;5130432;28;20383;-84
2021/06/16 05:55:04;;;;;;;2.85;1.52;;;;;;;16.89;97.72;93003.56;5129857;28;20495;-84
2021/06/16 05:57:33;;;;;;;2.42;1.45;;;;;;;16.98;96.46;92991.66;5129935;28;20047;-85
2021/06/16 06:00:00;;;;;;;4.10;1.52;;;;;;;17.27;95.73;93003.47;5130128;28;20043;-83
2021/06/16 06:02:26;;;;;;;4.63;1.73;;;;;;;17.33;93.87;92987.66;5129821;28;20127;-83
2021/06/16 06:04:53;;;;;;;2.55;1.70;;;;;;;17.47;91.50;93010.50;5129501;28;20047;-83
2021/06/16 06:07:22;;;;;;;6.13;2.15;;;;;;;17.56;90.87;93008.19;5130066;28;20047;-83
2021/06/16 06:09:49;;;;;;;3.85;1.90;;;;;;;17.72;90.86;92995.97;5129769;28;20047;-84
2021/06/16 06:12:16;;;;;;;1.73;1.20;;;;;;;17.97;88.36;93013.38;5129720;28;20568;-84
2021/06/16 06:14:44;;;;;;;2.47;1.40;;;;;;;18.14;87.23;93007.97;5130002;28;20043;-83
2021/06/16 06:17:11;;;;;;;2.22;1.40;;;;;;;18.14;85.63;92989.75;5129485;28;20055;-83
2021/06/16 06:19:38;;;;;;;4.43;1.55;;;;;;;18.43;86.67;92998.81;5132594;27;20050;-84
2021/06/16 06:22:05;;;;;;;4.80;1.38;;;;;;;18.76;85.35;93009.66;5133591;27;20047;-85
2021/06/16 06:24:32;;;;;;;2.22;1.50;;;;;;;18.96;84.06;93008.00;5133817;27;20119;-85
2021/06/16 06:26:59;;;;;;;2.97;1.45;;;;;;;18.99;82.25;93002.28;5133820;27;20051;-85
2021/06/16 06:29:27;;;;;;;4.45;1.58;;;;;;;19.26;83.29;93008.16;5133844;27;20407;-85
2021/06/16 06:31:55;;;;;;;3.65;1.70;;;;;;;19.31;81.04;92977.66;5133748;27;20121;-84
2021/06/16 06:34:22;;;;;;;3.55;2.15;;;;;;;19.11;82.02;93006.44;5133424;27;20043;-85
2021/06/16 06:36:48;;;;;;;5.10;1.67;;;;;;;19.55;82.46;92997.06;5133294;27;20051;-86
2021/06/16 06:39:15;;;;;;;3.40;2.00;;;;;;;19.59;79.47;93011.88;5133274;27;20569;-84
2021/06/16 06:41:42;;;;;;;1.98;1.40;;;;;;;19.83;79.37;93007.81;5133605;27;20051;-84
2021/06/16 06:44:09;;;;;;;2.45;1.33;;;;;;;19.74;80.60;92991.97;5133603;27;20065;-85
2021/06/16 06:46:36;;;;;;;2.95;1.52;;;;;;;20.08;80.28;93013.91;5134037;27;20055;-85
2021/06/16 06:49:04;;;;;;;1.90;0.95;;;;;;;19.94;79.88;93014.50;5136817;27;20043;-86
2021/06/16 06:51:31;;;;;;;2.30;1.40;;;;;;;19.65;79.77;93004.81;5136028;27;20097;-84
2021/06/16 06:53:58;;;;;;;2.90;1.20;;;;;;;19.70;80.90;93022.22;5133811;27;20043;-84
2021/06/16 06:56:25;;;;;;;2.20;1.10;;;;;;;19.72;80.89;93025.34;5133274;27;20047;-84
2021/06/16 06:58:51;;;;;;;5.05;2.00;;;;;;;19.66;81.95;93018.63;5132880;27;20051;-85
2021/06/16 07:01:18;;;;;;;2.97;1.27;;;;;;;19.94;81.52;93019.72;5133172;27;20572;-84
2021/06/16 07:03:45;;;;;;;3.83;1.33;;;;;;;19.53;81.52;93002.53;5133241;27;20043;-85
2021/06/16 07:06:13;;;;;;;1.88;1.02;;;;;;;19.50;82.49;93013.50;5132866;27;20051;-85
2021/06/16 07:08:40;;;;;;;1.48;0.80;;;;;;;19.28;80.98;93021.69;5132821;27;20081;-85
2021/06/16 07:11:07;;;;;;;2.47;1.00;;;;;;;19.16;83.42;93017.59;5133115;27;20043;-85
2021/06/16 07:13:33;;;;;;;2.08;1.20;;;;;;;19.25;82.77;93025.59;5132861;27;20051;-83
2021/06/16 07:16:00;;;;;;;2.70;1.40;;;;;;;19.32;82.20;93030.53;5132936;27;20451;-84
2021/06/16 07:18:27;;;;;;;2.28;1.48;;;;;;;19.32;80.81;93030.53;5132607;27;20051;-83
2021/06/16 07:20:54;;;;;;;1.35;0.93;;;;;;;19.12;82.77;93024.38;5132297;27;20046;-83
2021/06/16 07:23:22;;;;;;;2.28;1.00;;;;;;;19.11;82.47;93030.63;5133111;27;20051;-83
2021/06/16 07:25:51;;;;;;;1.58;1.00;;;;;;;19.00;81.57;93042.88;5132868;27;20051;-85
2021/06/16 07:28:17;;;;;;;1.77;1.05;;;;;;;18.93;82.77;93030.16;5132262;27;20047;-83
2021/06/16 07:30:44;;;;;;;1.60;0.80;;;;;;;18.81;82.50;93032.28;5132257;27;20451;-84
2021/06/16 07:33:11;;;;;;;2.70;1.70;;;;;;;19.17;82.09;93032.16;5132122;27;20057;-84
2021/06/16 07:35:38;;;;;;;1.67;1.00;;;;;;;19.05;81.26;93036.91;5132205;27;20047;-83
2021/06/16 07:38:05;;;;;;;1.77;0.98;;;;;;;19.08;82.32;93021.53;5132219;27;20047;-83
2021/06/16 07:40:34;;;;;;;1.80;1.10;;;;;;;19.24;82.65;93024.06;5131989;27;20513;-84
2021/06/16 07:43:00;;;;;;;1.77;1.10;;;;;;;19.26;80.72;93034.22;5132354;27;20058;-80
2021/06/16 07:45:27;;;;;;;1.70;0.77;;;;;;;19.25;80.39;93030.81;5132514;27;20054;-83
2021/06/16 07:47:54;;;;;;;2.53;1.15;;;;;;;19.12;80.60;93024.38;5131898;27;20043;-82
2021/06/16 07:50:21;;;;;;;2.63;1.10;;;;;;;19.31;81.70;93021.16;5132266;27;20047;-83
2021/06/16 07:52:48;;;;;;;1.70;1.20;;;;;;;19.60;82.12;93021.28;5131999;27;20506;-83
2021/06/16 07:55:16;;;;;;;2.58;1.02;;;;;;;19.45;80.45;93032.53;5131922;27;20985;-82
2021/06/16 07:57:44;;;;;;;3.40;1.55;;;;;;;19.32;81.00;93033.94;5132001;27;20391;-81
2021/06/16 08:00:12;;;;;;;4.97;1.65;;;;;;;19.44;81.57;93040.63;5131849;27;20142;-83
2021/06/16 08:02:52;;;;;;;2.28;1.23;;;;;;;19.61;80.64;93030.63;5131876;27;20518;-84
2021/06/16 08:05:19;;;;;;;3.75;1.10;;;;;;;20.20;79.64;93021.38;5130921;27;20047;-84
2021/06/16 08:07:46;;;;;;;3.13;1.48;;;;;;;20.46;79.67;93018.53;5127163;27;20062;-84
2021/06/16 08:10:14;;;;;;;2.47;1.10;;;;;;;20.60;76.97;93016.03;5129256;27;20046;-83
2021/06/16 08:12:41;;;;;;;1.95;1.13;;;;;;;20.83;77.27;93023.09;5126937;27;20120;-84
2021/06/16 08:15:11;;;;;;;2.05;1.15;;;;;;;21.08;73.33;93016.06;5131207;27;20040;-84
2021/06/16 08:17:37;;;;;;;2.92;1.42;;;;;;;21.41;70.88;93022.44;5131358;27;20043;-86
2021/06/16 08:20:09;;;;;;;1.83;1.30;;;;;;;21.58;70.38;93027.19;5131058;27;20039;-84
2021/06/16 08:22:36;;;;;;;1.35;0.93;;;;;;;21.51;70.11;93014.47;5128880;27;20066;-85
2021/06/16 08:25:06;;;;;;;1.73;0.85;;;;;;;21.61;70.38;93026.59;5131163;27;20075;-84
2021/06/16 08:27:33;;;;;;;1.73;0.98;;;;;;;21.49;69.61;93027.03;5131257;27;20414;-83
2021/06/16 08:30:00;;;;;;;1.77;0.85;;;;;;;21.88;70.19;93036.44;5131509;27;20047;-84
2021/06/16 08:32:28;;;;;;;1.45;0.90;;;;;;;22.34;68.85;93054.31;5131406;27;20055;-84
2021/06/16 08:34:55;;;;;;;2.10;1.10;;;;;;;22.21;66.50;93040.13;5130123;27;20074;-83
2021/06/16 08:37:22;;;;;;;1.95;1.15;;;;;;;22.58;68.70;93054.19;5129891;27;20051;-84
2021/06/16 08:39:49;;;;;;;1.65;0.88;;;;;;;22.18;66.28;93040.69;5131307;27;20096;-85
2021/06/16 08:42:17;;;;;;;1.60;0.88;;;;;;;21.61;68.05;93047.50;5130271;27;20054;-83
2021/06/16 08:44:43;;;;;;;2.53;1.00;;;;;;;21.70;71.76;93051.06;5131189;27;20047;-84
2021/06/16 08:47:10;;;;;;;1.50;0.85;;;;;;;22.39;67.48;93065.47;5131140;27;20053;-83
2021/06/16 08:49:38;;;;;;;2.10;1.00;;;;;;;22.18;69.20;93065.03;5131186;27;20485;-84
2021/06/16 08:52:06;;;;;;;1.63;1.10;;;;;;;21.75;69.12;93052.81;5131021;27;20047;-85
2021/06/16 08:54:33;;;;;;;1.70;0.90;;;;;;;21.90;70.67;93064.94;5130670;27;20047;-83
2021/06/16 08:56:59;;;;;;;1.40;0.90;;;;;;;21.94;68.26;93058.03;5130878;27;20058;-84
2021/06/16 08:59:27;;;;;;;1.98;0.90;;;;;;;22.34;66.34;93070.78;5130411;27;20130;-83
2021/06/16 09:01:53;;;;;;;2.45;0.82;;;;;;;22.48;67.60;93067.41;5130789;27;20433;-83
2021/06/16 09:04:47;;;;;;;2.05;1.20;;;;;;;21.92;67.79;93052.34;5130923;27;20044;-84
2021/06/16 09:07:16;;;;;;;2.15;1.20;;;;;;;21.05;71.41;93055.78;5123293;27;20531;-83
2021/06/16 09:09:43;;;;;;;2.05;0.88;;;;;;;20.75;71.90;93036.78;5130792;27;20047;-85
2021/06/16 09:12:12;;;;;;;2.50;1.13;;;;;;;20.62;71.79;93061.69;5130432;27;20436;-84
2021/06/16 09:14:51;;;;;;;3.83;1.23;;;;;;;21.13;72.36;93051.78;5130398;27;20134;-84
2021/06/16 09:17:21;;;;;;;1.75;0.88;;;;;;;21.07;68.36;93064.09;5130555;27;20047;-82
2021/06/16 09:19:54;;;;;;;2.70;1.45;;;;;;;21.34;67.55;93081.03;5130679;27;20054;-83
2021/06/16 09:22:29;;;;;;;2.70;1.00;;;;;;;20.85;67.49;93056.78;5130838;27;20051;-83
2021/06/16 09:24:57;;;;;;;2.42;1.67;;;;;;;20.69;68.31;93059.53;5130139;27;20508;-82
2021/06/16 09:27:46;;;;;;;2.42;1.10;;;;;;;20.63;70.26;93060.63;5130355;27;20053;-83
2021/06/16 09:30:33;;;;;;;1.70;0.90;;;;;;;20.90;71.17;93082.84;5129958;27;20051;-82
2021/06/16 09:33:06;;;;;;;2.65;1.40;;;;;;;20.48;71.79;93087.66;5130295;27;20047;-82
2021/06/16 09:35:36;;;;;;;1.30;0.85;;;;;;;20.32;72.20;93024.38;5129894;27;20047;-84
2021/06/16 09:38:06;;;;;;;1.77;0.95;;;;;;;20.89;71.31;93101.38;5130504;27;20559;-83
2021/06/16 09:40:35;;;;;;;3.05;1.45;;;;;;;20.75;72.45;93064.69;5130397;27;20537;-83
2021/06/16 09:43:04;;;;;;;1.70;1.00;;;;;;;20.54;71.19;93085.75;5130288;28;20439;-83
2021/06/16 09:45:31;;;;;;;2.10;1.00;;;;;;;20.65;70.96;93096.91;5130293;28;20047;-84
2021/06/16 09:47:58;;;;;;;4.20;1.70;;;;;;;20.44;72.62;93099.69;5130440;28;20054;-84
2021/06/16 09:50:27;;;;;;;2.47;1.17;;;;;;;20.68;71.16;93104.16;5126099;27;20054;-83
2021/06/16 09:52:55;;;;;;;1.77;1.08;;;;;;;20.70;70.98;93091.63;5129750;27;20052;-84
2021/06/16 09:55:28;;;;;;;2.17;1.38;;;;;;;20.66;72.60;93101.84;5134162;27;20047;-85
2021/06/16 09:58:03;;;;;;;1.50;0.80;;;;;;;20.78;72.09;93095.47;5134259;27;20145;-83
2021/06/16 10:00:32;;;;;;;2.22;0.95;;;;;;;20.44;73.21;93097.06;5134147;27;20574;-84
2021/06/16 10:03:13;;;;;;;1.38;0.93;;;;;;;20.68;73.01;93107.56;5134351;27;20050;-85
2021/06/16 10:06:06;;;;;;;1.67;0.80;;;;;;;20.76;73.16;93115.84;5134460;27;20047;-83
2021/06/16 10:08:36;;;;;;;2.33;1.60;;;;;;;20.90;72.43;93101.13;5134352;27;20051;-84
2021/06/16 10:11:04;;;;;;;2.00;1.13;;;;;;;20.73;72.11;93106.72;5134150;27;20130;-84
2021/06/16 10:13:31;;;;;;;1.67;1.00;;;;;;;20.66;71.98;93114.09;5133889;27;20834;-85
2021/06/16 10:16:00;;;;;;;3.20;1.00;;;;;;;20.85;71.72;93110.78;5133985;27;20584;-84
2021/06/16 10:18:28;;;;;;;1.70;0.82;;;;;;;20.95;72.43;93113.34;5134353;27;20059;-84
2021/06/16 10:20:56;;;;;;;1.65;0.98;;;;;;;21.02;70.44;93118.22;5133667;27;20051;-82
2021/06/16 10:23:23;;;;;;;2.83;1.00;;;;;;;21.05;71.45;93115.06;5133681;27;20545;-85
2021/06/16 10:25:54;;;;;;;1.50;0.90;;;;;;;20.70;69.77;93053.25;5133904;27;20039;-83
2021/06/16 10:28:24;;;;;;;1.35;0.77;;;;;;;21.09;70.71;93103.78;5134057;27;20047;-84
2021/06/16 10:30:56;;;;;;;1.55;0.73;;;;;;;21.10;69.30;93115.00;5129147;27;20325;-83
2021/06/16 10:33:34;;;;;;;1.88;1.17;;;;;;;21.23;70.41;93106.50;5133854;27;20039;-84
2021/06/16 10:36:09;;;;;;;2.20;1.42;;;;;;;21.12;70.71;93115.53;5133688;27;20134;-82
2021/06/16 10:38:36;;;;;;;2.40;1.00;;;;;;;21.62;69.48;93109.19;5134242;27;20051;-84
2021/06/16 10:41:05;;;;;;;1.88;0.90;;;;;;;22.02;69.15;93104.50;5134546;27;20047;-83
2021/06/16 10:43:32;;;;;;;1.58;0.70;;;;;;;21.91;67.70;93089.22;5129774;27;20058;-83
2021/06/16 10:46:01;;;;;;;1.50;0.63;;;;;;;22.04;67.65;93114.69;5131721;27;20043;-84
2021/06/16 10:48:55;;;;;;;2.08;0.90;;;;;;;21.52;69.26;93070.13;5132628;27;20047;-84
2021/06/16 10:51:34;;;;;;;3.10;1.10;;;;;;;21.50;70.00;93091.31;5132808;27;20043;-84
2021/06/16 10:54:22;;;;;;;2.10;0.98;;;;;;;20.94;74.70;93112.56;5133337;27;20075;-84
2021/06/16 10:56:56;;;;;;;1.75;0.70;;;;;;;20.49;76.46;93110.06;5133797;27;20134;-82
2021/06/16 11:00:05;;;;;;;1.75;0.80;;;;;;;20.44;76.95;93112.72;5132913;27;20047;-85
2021/06/16 11:03:04;;;;;;;2.40;1.08;;;;;;;20.13;77.51;93107.72;5132755;27;20073;-85
2021/06/16 11:05:45;;;;;;;2.88;1.45;;;;;;;20.15;77.46;93108.25;5132218;27;20043;-84
2021/06/16 11:08:52;;;;;;;1.48;0.75;;;;;;;20.38;76.46;93113.81;5132793;27;20058;-86
2021/06/16 11:11:20;;;;;;;1.50;0.90;;;;;;;20.75;76.76;93107.25;5132814;27;20051;-86
2021/06/16 11:13:48;;;;;;;1.63;0.70;;;;;;;21.18;74.23;93100.56;5116860;27;21011;-86
2021/06/16 11:16:52;;;;;;;1.73;1.20;;;;;;;21.67;69.12;93100.50;5113717;28;20050;-83
2021/06/16 11:19:25;;;;;;;1.57;0.80;;;;;;;22.08;66.96;93099.19;5112265;28;20388;-85
2021/06/16 11:21:53;;;;;;;2.33;1.30;;;;;;;22.44;67.89;93085.53;5112665;28;20048;-86
2021/06/16 11:24:21;;;;;;;1.20;0.80;;;;;;;22.36;69.65;93055.56;5112280;28;20056;-86
2021/06/16 11:26:50;;;;;;;1.13;0.60;;;;;;;21.67;68.23;93098.69;5130417;27;20119;-85
2021/06/16 11:29:54;;;;;;;1.58;0.80;;;;;;;21.47;69.64;93099.69;5132542;27;20452;-84
2021/06/16 11:32:22;;;;;;;2.07;1.10;;;;;;;20.92;73.06;93075.50;5132418;27;20046;-84
2021/06/16 11:34:53;;;;;;;2.72;1.42;;;;;;;21.05;73.96;93099.38;5132707;27;20039;-85
2021/06/16 11:37:57;;;;;;;2.20;0.80;;;;;;;21.18;74.69;93101.34;5125851;27;20600;-85
2021/06/16 11:40:26;;;;;;;3.17;1.23;;;;;;;21.18;73.43;93088.28;5111696;28;20054;-84